STAZIONE METEO DI BARCELLONA P.G. CENTRO
Dati campionati ogni minuto da Consolle Davis Vantage Pro 2
ed inviati alla rete mediante server Anemos WDS5 wview



Barcellona P.G. Centro more information Barcellona P.G. Centro


Golfo di Patti more information Golfo di Patti


avvertimento per Temporali more information blitzortung!


Rain radar  rain snow radar


altri nostri siti meteo:

Rete NOAA MADIS

Italia Meteo Network

Pomeziameteo

Varazze Meteo



Temporali Inizio validità dal: 20-04-2018 07:00 Fino: 18:59 Allerta per: Temporali Livello: Giallo info button
english:
No Special Awareness Required BE AWARE, keep up to date with the latest weather forecast. Expect some minor disruption to outdoor activities

italiano:
Nessun Avviso STARE (RIMANERE) ATTENTI. Tenersi aggiornati con le previsioni del tempo più recenti. Aspettarsi alcuni disagi minori per le attività all'aria aperta. 

Report METAR

   
LICF - Barcellona Pozzo di Gotto
Dati ricevuti: 20-04-2018 03:55
Sereno  
Sereno  
   Vento: Oriente 7.4 km/h
Vento: Oriente 7.4 km/h
Temperatura: 15°C
P.to Rugiada: 14°C
Umidità: 94%
Barometro: 1021 hPa
Visibilità: oltre 10 km
dettagli cloud: Sereno
LICF 200155Z 08004KT CAVOK 15/14 Q1021 RMK SKC QUK / QUL / VIS MAR 12 KM MON INVIS NC VIS MIN 9999
LICC - Catania
Dati ricevuti: 20-04-2018 04:50
Parzialmente nuvoloso  
Parzialmente nuvoloso  
   Vento: Variabile 3.7 km/h
Vento: Variabile 3.7 km/h
Temperatura: 11°C
P.to Rugiada: 11°C
Umidità: 100%
Barometro: 1020 hPa
Nuvole: Parzialmente nuvoloso
Visibilità: 7 km
dettagli cloud: Parzialmente nuvoloso
LICC 200250Z VRB02KT 7000 NSC 11/11 Q1020
LICJ - Palermo
Dati ricevuti: 20-04-2018 04:50
Sereno  
Sereno  
   Vento: Variabile 1.9 km/h
Vento: Variabile 1.9 km/h
Temperatura: 14°C
P.to Rugiada: 12°C
Umidità: 88%
Barometro: 1020 hPa
Visibilità: oltre 10 km
dettagli cloud: Sereno
LICJ 200250Z VRB01KT CAVOK 14/12 Q1020
LICF - Messina
Dati ricevuti: 20-04-2018 03:55
Sereno  
Sereno  
   Vento: Oriente 7.4 km/h
Vento: Oriente 7.4 km/h
Temperatura: 15°C
P.to Rugiada: 14°C
Umidità: 94%
Barometro: 1021 hPa
Visibilità: oltre 10 km
dettagli cloud: Sereno
LICF 200155Z 08004KT CAVOK 15/14 Q1021 RMK SKC QUK / QUL / VIS MAR 12 KM MON INVIS NC VIS MIN 9999
LICC - Milazzo
Dati ricevuti: 20-04-2018 04:50
Parzialmente nuvoloso  
Parzialmente nuvoloso  
   Vento: Variabile 3.7 km/h
Vento: Variabile 3.7 km/h
Temperatura: 11°C
P.to Rugiada: 11°C
Umidità: 100%
Barometro: 1020 hPa
Nuvole: Parzialmente nuvoloso
Visibilità: 7 km
dettagli cloud: Parzialmente nuvoloso
LICC 200250Z VRB02KT 7000 NSC 11/11 Q1020
LICC - Terme Vigliatore
Dati ricevuti: 20-04-2018 04:50
Parzialmente nuvoloso  
Parzialmente nuvoloso  
   Vento: Variabile 3.7 km/h
Vento: Variabile 3.7 km/h
Temperatura: 11°C
P.to Rugiada: 11°C
Umidità: 100%
Barometro: 1020 hPa
Nuvole: Parzialmente nuvoloso
Visibilità: 7 km
dettagli cloud: Parzialmente nuvoloso
LICC 200250Z VRB02KT 7000 NSC 11/11 Q1020
LICT - Trapani
Dati ricevuti: 20-04-2018 03:55
Sereno  
Sereno  
   Vento: SE 3.7 km/h
Vento: SE 3.7 km/h
Temperatura: 12°C
P.to Rugiada: 10°C
Umidità: 88%
Barometro: 1021 hPa
Visibilità: oltre 10 km
dettagli cloud: Sereno
LICT 200155Z 13002KT CAVOK 12/10 Q1021
  

Script sviluppato da  Saratoga-weather.org Adattato per il modello da  Weerstation Leuven

Potete trovare le nostre info meteo anche a:

European Weather Network

Weather Underground

AWEKAS

Citizen Weather Observer Program (CWOP)

HAMweather, WeatherForYou, PWS Weather

Strumentazione usata:

Stazione meteo
Davis VP2

Programma gestore dati meteo
WVIEW

Server per i dati meteo
WDS5 Ecoblack

Davis VP2

WVIEW

WDS5 Ecoblack